createdAt,value
2023-11-18T00:00:14.895Z,83.21
2023-11-18T00:02:44.660Z,83.26
2023-11-18T00:05:13.275Z,83.16
2023-11-18T00:07:41.271Z,83.24
2023-11-18T00:10:09.876Z,83.36
2023-11-18T00:12:42.173Z,83.30
2023-11-18T00:15:13.146Z,83.29
2023-11-18T00:17:41.728Z,83.27
2023-11-18T00:20:11.090Z,83.21
2023-11-18T00:22:39.413Z,83.27
2023-11-18T00:25:10.717Z,83.13
2023-11-18T00:27:38.930Z,83.16
2023-11-18T00:30:09.799Z,83.20
2023-11-18T00:32:38.158Z,83.04
2023-11-18T00:35:06.927Z,83.03
2023-11-18T00:37:35.246Z,83.04
2023-11-18T00:40:03.768Z,83.07
2023-11-18T00:42:32.811Z,83.01
2023-11-18T00:45:00.560Z,83.06
2023-11-18T00:47:28.608Z,83.03
2023-11-18T00:49:56.509Z,83.01
2023-11-18T00:52:24.442Z,82.94
2023-11-18T00:54:52.188Z,83.11
2023-11-18T00:57:19.867Z,83.07
2023-11-18T00:59:48.327Z,82.97
2023-11-18T01:02:16.210Z,82.97
2023-11-18T01:04:44.402Z,82.97
2023-11-18T01:07:12.225Z,83.00
2023-11-18T01:09:40.442Z,83.00
2023-11-18T01:12:11.276Z,83.07
2023-11-18T01:14:40.921Z,83.04
2023-11-18T01:17:10.345Z,83.12
2023-11-18T01:19:38.270Z,83.28
2023-11-18T01:22:07.283Z,83.28
2023-11-18T01:24:35.370Z,83.43
2023-11-18T01:27:03.707Z,83.34
2023-11-18T01:29:32.222Z,83.39
2023-11-18T01:32:00.129Z,83.42
2023-11-18T01:34:29.468Z,83.47
2023-11-18T01:36:58.427Z,83.59
2023-11-18T01:39:27.849Z,83.63
2023-11-18T01:41:56.872Z,83.80
2023-11-18T01:44:25.420Z,83.91
2023-11-18T01:46:54.892Z,83.99
2023-11-18T01:49:24.057Z,84.11
2023-11-18T01:51:53.104Z,84.22
2023-11-18T01:54:22.747Z,84.62
2023-11-18T01:56:53.092Z,84.58
2023-11-18T01:59:21.107Z,84.74
2023-11-18T02:01:52.462Z,84.68
2023-11-18T02:04:21.813Z,84.67
2023-11-18T02:06:51.190Z,84.62
2023-11-18T02:09:30.412Z,84.57
2023-11-18T02:12:01.292Z,84.54
2023-11-18T02:14:31.910Z,84.52
2023-11-18T02:17:04.637Z,84.53
2023-11-18T02:19:36.097Z,84.56
2023-11-18T02:22:05.284Z,84.53
2023-11-18T02:24:42.726Z,84.51
2023-11-18T02:27:13.125Z,84.48
2023-11-18T02:29:44.626Z,84.45
2023-11-18T02:32:33.523Z,84.37
2023-11-18T02:35:31.043Z,84.26
2023-11-18T02:38:01.688Z,84.24
2023-11-18T02:40:36.806Z,84.18
2023-11-18T02:43:06.856Z,84.19
2023-11-18T02:45:37.318Z,84.18
2023-11-18T02:48:08.571Z,84.17
2023-11-18T02:50:37.459Z,84.06
2023-11-18T02:53:06.707Z,84.05
2023-11-18T02:55:34.602Z,84.03
2023-11-18T02:58:06.616Z,84.10
2023-11-18T03:00:35.829Z,84.04
2023-11-18T03:03:04.260Z,84.06
2023-11-18T03:05:32.555Z,84.06
2023-11-18T03:08:00.370Z,84.15
2023-11-18T03:10:28.152Z,84.02
2023-11-18T03:12:56.237Z,84.02
2023-11-18T03:15:24.617Z,84.06
2023-11-18T03:17:53.469Z,84.08
2023-11-18T03:20:24.162Z,83.98
2023-11-18T03:22:53.349Z,83.99
2023-11-18T03:25:24.767Z,83.92
2023-11-18T03:27:55.901Z,83.94
2023-11-18T03:30:23.681Z,83.85
2023-11-18T03:32:51.314Z,83.90
2023-11-18T03:35:19.265Z,83.86
2023-11-18T03:37:47.122Z,83.92
2023-11-18T03:40:16.695Z,83.86
2023-11-18T03:42:47.713Z,83.82
2023-11-18T03:45:19.658Z,83.87
2023-11-18T03:47:49.017Z,83.93
2023-11-18T03:50:17.344Z,83.88
2023-11-18T03:52:45.088Z,83.83
2023-11-18T03:55:13.129Z,83.70
2023-11-18T03:57:41.723Z,83.70
2023-11-18T04:00:12.939Z,83.67
2023-11-18T04:02:41.738Z,83.65
2023-11-18T04:05:11.297Z,83.57
2023-11-18T04:07:39.354Z,83.56
2023-11-18T04:10:08.360Z,83.59
2023-11-18T04:12:36.045Z,83.58
2023-11-18T04:15:05.857Z,83.53
2023-11-18T04:17:34.426Z,83.52
2023-11-18T04:20:05.580Z,83.53
2023-11-18T04:22:33.367Z,83.50
2023-11-18T04:25:01.094Z,83.54
2023-11-18T04:27:28.764Z,83.53
2023-11-18T04:29:56.385Z,83.35
2023-11-18T04:32:24.038Z,83.43
2023-11-18T04:34:52.508Z,83.47
2023-11-18T04:37:20.224Z,83.47
2023-11-18T04:39:48.148Z,83.46
2023-11-18T04:42:16.790Z,83.50
2023-11-18T04:44:45.130Z,83.48
2023-11-18T04:47:12.924Z,83.57
2023-11-18T04:49:41.731Z,83.56
2023-11-18T04:52:09.394Z,83.56
2023-11-18T04:54:37.689Z,83.53
2023-11-18T04:57:05.524Z,83.58
2023-11-18T04:59:33.297Z,83.59
2023-11-18T05:02:03.969Z,83.68
2023-11-18T05:04:31.951Z,83.66
2023-11-18T05:06:59.687Z,83.61
2023-11-18T05:09:27.369Z,83.66
2023-11-18T05:11:56.239Z,83.62
2023-11-18T05:14:24.046Z,83.49
2023-11-18T05:16:51.965Z,83.48
2023-11-18T05:19:19.641Z,83.10
2023-11-18T05:21:50.951Z,83.37
2023-11-18T05:24:19.001Z,83.38
2023-11-18T05:26:46.743Z,83.28
2023-11-18T05:29:17.845Z,83.34
2023-11-18T05:31:46.681Z,83.38
2023-11-18T05:34:14.512Z,83.01
2023-11-18T05:36:42.179Z,83.08
2023-11-18T05:39:10.832Z,82.95
2023-11-18T05:41:41.059Z,82.90
2023-11-18T05:44:10.926Z,82.96
2023-11-18T05:46:40.486Z,82.88
2023-11-18T05:49:09.349Z,82.72
2023-11-18T05:51:37.501Z,82.31
2023-11-18T05:54:05.414Z,82.45
2023-11-18T05:56:33.492Z,82.32
2023-11-18T05:59:04.395Z,82.02
2023-11-18T06:01:32.877Z,81.86
2023-11-18T06:04:01.932Z,81.61
2023-11-18T06:06:30.471Z,81.66
2023-11-18T06:09:00.451Z,81.34
2023-11-18T06:11:30.231Z,81.19
2023-11-18T06:13:57.880Z,81.17
2023-11-18T06:16:27.576Z,81.09
2023-11-18T06:18:57.050Z,81.21
2023-11-18T06:21:32.405Z,81.14
2023-11-18T06:24:02.138Z,81.35
2023-11-18T06:26:30.118Z,81.57
2023-11-18T06:28:58.716Z,81.59
2023-11-18T06:31:26.465Z,81.74
2023-11-18T06:33:54.566Z,81.76
2023-11-18T06:36:23.979Z,81.40
2023-11-18T06:38:53.440Z,81.34
2023-11-18T06:41:27.612Z,80.83
2023-11-18T06:43:55.541Z,80.75
2023-11-18T06:46:26.951Z,80.96
2023-11-18T06:48:55.902Z,80.83
2023-11-18T06:51:25.622Z,80.90
2023-11-18T06:53:57.352Z,80.67
2023-11-18T06:56:29.098Z,80.90
2023-11-18T06:58:57.013Z,80.41
2023-11-18T07:01:24.814Z,80.66
2023-11-18T07:03:54.414Z,80.67
2023-11-18T07:06:28.051Z,80.20
2023-11-18T07:09:01.790Z,80.87
2023-11-18T07:11:29.600Z,81.01
2023-11-18T07:13:58.232Z,81.18
2023-11-18T07:16:26.766Z,81.23
2023-11-18T07:18:55.210Z,80.98
2023-11-18T07:21:23.740Z,81.06
2023-11-18T07:23:51.347Z,81.09
2023-11-18T07:26:19.266Z,80.72
2023-11-18T07:28:47.200Z,81.02
2023-11-18T07:31:14.993Z,80.84
2023-11-18T07:33:45.830Z,80.59
2023-11-18T07:36:13.474Z,80.89
2023-11-18T07:38:41.466Z,80.90
2023-11-18T07:41:10.676Z,80.78
2023-11-18T07:43:38.582Z,80.58
2023-11-18T07:46:09.151Z,80.97
2023-11-18T07:48:37.124Z,80.74
2023-11-18T07:51:05.215Z,80.50
2023-11-18T07:53:33.039Z,79.78
2023-11-18T07:56:02.852Z,80.08
2023-11-18T07:58:30.688Z,79.82
2023-11-18T08:01:00.634Z,79.93
2023-11-18T08:03:29.201Z,80.37
2023-11-18T08:05:56.963Z,80.31
2023-11-18T08:08:24.674Z,79.83
2023-11-18T08:10:52.458Z,80.03
2023-11-18T08:13:20.335Z,79.66
2023-11-18T08:15:48.329Z,79.68
2023-11-18T08:18:16.856Z,79.60
2023-11-18T08:20:45.926Z,79.00
2023-11-18T08:23:13.754Z,79.01
2023-11-18T08:25:41.671Z,78.83
2023-11-18T08:28:10.812Z,79.40
2023-11-18T08:30:41.486Z,79.02
2023-11-18T08:33:12.252Z,79.11
2023-11-18T08:35:41.476Z,79.31
2023-11-18T08:38:09.580Z,79.59
2023-11-18T08:40:37.448Z,78.55
2023-11-18T08:43:08.859Z,78.46
2023-11-18T08:45:38.605Z,78.81
2023-11-18T08:48:10.103Z,78.84
2023-11-18T08:50:41.479Z,78.51
2023-11-18T08:53:11.453Z,78.19
2023-11-18T08:55:48.304Z,78.66
2023-11-18T08:58:35.183Z,78.17
2023-11-18T09:01:07.663Z,77.27
2023-11-18T09:03:36.021Z,77.61
2023-11-18T09:06:07.887Z,77.62
2023-11-18T09:08:40.194Z,77.43
2023-11-18T09:11:12.095Z,77.44
2023-11-18T09:13:40.639Z,77.97
2023-11-18T09:16:12.407Z,77.57
2023-11-18T09:18:43.599Z,78.15
2023-11-18T09:21:24.338Z,78.06
2023-11-18T09:23:52.227Z,78.33
2023-11-18T09:26:22.534Z,77.98
2023-11-18T09:28:51.546Z,78.06
2023-11-18T09:31:19.416Z,78.43
2023-11-18T09:33:53.812Z,78.60
2023-11-18T09:36:23.889Z,78.35
2023-11-18T09:38:52.179Z,78.96
2023-11-18T09:41:20.065Z,79.06
2023-11-18T09:43:49.343Z,79.42
2023-11-18T09:46:25.670Z,79.72
2023-11-18T09:49:15.802Z,79.62
2023-11-18T09:51:48.309Z,79.81
2023-11-18T09:54:38.856Z,79.76
2023-11-18T09:57:20.454Z,80.31
2023-11-18T10:00:27.613Z,80.07
2023-11-18T10:02:58.593Z,80.68
2023-11-18T10:05:31.528Z,81.05
2023-11-18T10:08:03.219Z,81.53
2023-11-18T10:10:38.011Z,81.58
2023-11-18T10:13:22.915Z,81.47
2023-11-18T10:15:53.725Z,81.91
2023-11-18T10:18:24.590Z,81.73
2023-11-18T10:20:54.446Z,81.96
2023-11-18T10:23:24.845Z,82.14
2023-11-18T10:25:58.357Z,82.16
2023-11-18T10:28:40.110Z,81.97
2023-11-18T10:31:10.735Z,82.31
2023-11-18T10:33:43.310Z,82.14
2023-11-18T10:36:26.373Z,81.97
2023-11-18T10:38:57.611Z,82.19
2023-11-18T10:41:25.868Z,82.24
2023-11-18T10:44:16.076Z,81.90
2023-11-18T10:46:54.953Z,81.32
2023-11-18T10:49:23.458Z,81.68
2023-11-18T10:51:52.914Z,81.56
2023-11-18T10:54:20.748Z,81.74
2023-11-18T10:56:49.698Z,81.48
2023-11-18T10:59:19.495Z,80.92
2023-11-18T11:01:50.811Z,80.82
2023-11-18T11:04:22.211Z,81.03
2023-11-18T11:06:54.788Z,80.97
2023-11-18T11:09:29.804Z,80.35
2023-11-18T11:12:05.569Z,79.30
2023-11-18T11:14:42.688Z,79.65
2023-11-18T11:17:25.112Z,78.91
2023-11-18T11:20:18.225Z,79.57
2023-11-18T11:23:16.416Z,79.42
2023-11-18T11:25:54.517Z,78.22
2023-11-18T11:28:23.771Z,78.32
2023-11-18T11:31:02.254Z,78.78
2023-11-18T11:33:41.714Z,78.48
2023-11-18T11:36:17.606Z,78.69
2023-11-18T11:38:48.050Z,77.74
2023-11-18T11:41:20.975Z,78.30
2023-11-18T11:43:50.441Z,78.77
2023-11-18T11:46:24.658Z,78.70
2023-11-18T11:48:56.868Z,78.17
2023-11-18T11:51:38.685Z,78.46
2023-11-18T11:54:30.392Z,77.46
2023-11-18T11:57:01.107Z,78.32
2023-11-18T11:59:58.541Z,78.71
2023-11-18T12:02:33.676Z,79.54
2023-11-18T12:05:08.036Z,78.77
2023-11-18T12:07:40.212Z,78.81
2023-11-18T12:10:21.624Z,77.94
2023-11-18T12:12:49.971Z,78.29
2023-11-18T12:15:38.088Z,78.89
2023-11-18T12:18:06.129Z,79.02
2023-11-18T12:20:43.878Z,79.56
2023-11-18T12:23:19.361Z,79.43
2023-11-18T12:25:47.923Z,80.42
2023-11-18T12:28:23.029Z,80.07
2023-11-18T12:30:53.907Z,80.41
2023-11-18T12:33:24.845Z,80.67
2023-11-18T12:35:52.932Z,80.72
2023-11-18T12:38:47.023Z,80.52
2023-11-18T12:41:43.730Z,81.21
2023-11-18T12:44:25.206Z,81.27
2023-11-18T12:46:56.584Z,80.95
2023-11-18T12:49:26.182Z,81.36
2023-11-18T12:51:57.002Z,81.73
2023-11-18T12:54:28.513Z,81.82
2023-11-18T12:57:02.235Z,81.67
2023-11-18T12:59:31.898Z,81.35
2023-11-18T13:01:59.944Z,81.86
2023-11-18T13:04:31.601Z,81.86
2023-11-18T13:07:01.252Z,81.74
2023-11-18T13:09:33.136Z,82.13
2023-11-18T13:12:05.776Z,81.71
2023-11-18T13:14:38.097Z,81.82
2023-11-18T13:17:10.620Z,82.29
2023-11-18T13:19:38.486Z,81.92
2023-11-18T13:22:12.203Z,81.90
2023-11-18T13:24:45.507Z,82.19
2023-11-18T13:27:20.858Z,82.10
2023-11-18T13:29:54.249Z,82.13
2023-11-18T13:32:28.090Z,82.49
2023-11-18T13:34:56.334Z,82.47
2023-11-18T13:37:24.649Z,82.03
2023-11-18T13:40:00.054Z,81.98
2023-11-18T13:42:32.773Z,81.64
2023-11-18T13:45:14.121Z,81.58
2023-11-18T13:47:51.156Z,81.24
2023-11-18T13:50:20.507Z,81.46
2023-11-18T13:52:49.326Z,81.19
2023-11-18T13:55:18.650Z,81.61
2023-11-18T13:57:46.811Z,81.82
2023-11-18T14:00:17.660Z,81.90
2023-11-18T14:02:47.475Z,81.40
2023-11-18T14:05:20.568Z,82.14
2023-11-18T14:07:49.807Z,81.92
2023-11-18T14:10:20.600Z,82.01
2023-11-18T14:13:10.764Z,82.64
2023-11-18T14:15:38.796Z,82.85
2023-11-18T14:18:09.198Z,82.89
2023-11-18T14:20:37.877Z,83.16
2023-11-18T14:23:06.530Z,83.62
2023-11-18T14:25:35.122Z,83.67
2023-11-18T14:28:06.558Z,84.14
2023-11-18T14:30:35.547Z,84.27
2023-11-18T14:33:05.078Z,84.69
2023-11-18T14:35:32.859Z,84.61
2023-11-18T14:38:02.269Z,84.67
2023-11-18T14:40:29.986Z,84.68
2023-11-18T14:42:58.238Z,84.54
2023-11-18T14:45:27.044Z,84.65
2023-11-18T14:47:57.290Z,84.55
2023-11-18T14:50:27.118Z,84.42
2023-11-18T14:53:01.475Z,84.63
2023-11-18T14:55:31.134Z,84.56
2023-11-18T14:57:58.802Z,84.78
2023-11-18T15:00:28.652Z,84.93
2023-11-18T15:03:00.017Z,84.85
2023-11-18T15:05:29.340Z,84.89
2023-11-18T15:08:01.973Z,85.06
2023-11-18T15:10:30.408Z,85.06
2023-11-18T15:13:01.927Z,85.30
2023-11-18T15:15:38.047Z,85.54
2023-11-18T15:18:11.189Z,85.74
2023-11-18T15:20:46.020Z,86.00
2023-11-18T15:23:23.626Z,86.43
2023-11-18T15:25:51.571Z,86.52
2023-11-18T15:28:20.031Z,86.41
2023-11-18T15:30:48.066Z,86.47
2023-11-18T15:33:16.657Z,86.40
2023-11-18T15:35:44.783Z,86.17
2023-11-18T15:38:19.136Z,86.18
2023-11-18T15:40:51.371Z,85.82
2023-11-18T15:43:19.450Z,85.60
2023-11-18T15:45:48.310Z,85.51
2023-11-18T15:48:16.261Z,85.23
2023-11-18T15:50:44.327Z,85.47
2023-11-18T15:53:15.593Z,85.17
2023-11-18T15:55:48.966Z,85.72
2023-11-18T15:58:20.250Z,85.46
2023-11-18T16:00:48.480Z,85.38
2023-11-18T16:03:16.470Z,85.63
2023-11-18T16:05:44.518Z,85.76
2023-11-18T16:08:12.276Z,86.06
2023-11-18T16:10:40.196Z,85.97
2023-11-18T16:13:07.993Z,86.22
2023-11-18T16:15:36.998Z,86.19
2023-11-18T16:18:05.319Z,86.27
2023-11-18T16:20:34.137Z,86.30
2023-11-18T16:23:06.656Z,86.11
2023-11-18T16:25:38.680Z,86.05
2023-11-18T16:28:09.204Z,85.85
2023-11-18T16:30:38.766Z,85.83
2023-11-18T16:33:06.989Z,86.03
2023-11-18T16:35:34.757Z,86.11
2023-11-18T16:38:03.754Z,86.08
2023-11-18T16:40:34.430Z,85.95
2023-11-18T16:43:02.954Z,86.13
2023-11-18T16:45:30.885Z,86.29
2023-11-18T16:47:59.250Z,86.37
2023-11-18T16:50:30.641Z,86.55
2023-11-18T16:53:00.986Z,86.54
2023-11-18T16:55:32.250Z,86.68
2023-11-18T16:58:01.435Z,86.73
2023-11-18T17:00:30.597Z,86.78
2023-11-18T17:03:00.058Z,86.80
2023-11-18T17:05:31.210Z,86.59
2023-11-18T17:08:00.967Z,86.53
2023-11-18T17:10:29.360Z,86.57
2023-11-18T17:12:59.276Z,86.58
2023-11-18T17:15:27.503Z,86.42
2023-11-18T17:18:03.053Z,86.21
2023-11-18T17:20:32.270Z,86.26
2023-11-18T17:23:00.185Z,86.28
2023-11-18T17:25:28.236Z,86.17
2023-11-18T17:27:55.967Z,86.09
2023-11-18T17:30:24.442Z,85.96
2023-11-18T17:32:55.326Z,86.22
2023-11-18T17:35:23.486Z,85.92
2023-11-18T17:37:51.511Z,85.83
2023-11-18T17:40:22.785Z,85.91
2023-11-18T17:42:54.858Z,85.95
2023-11-18T17:45:25.625Z,86.06
2023-11-18T17:47:53.891Z,86.37
2023-11-18T17:50:22.661Z,86.29
2023-11-18T17:52:53.454Z,86.18
2023-11-18T17:55:21.619Z,86.36
2023-11-18T17:57:49.793Z,86.29
2023-11-18T18:00:21.818Z,86.34
2023-11-18T18:02:50.620Z,86.51
2023-11-18T18:05:19.127Z,86.44
2023-11-18T18:07:47.355Z,86.57
2023-11-18T18:10:15.371Z,86.48
2023-11-18T18:12:46.638Z,86.55
2023-11-18T18:15:15.000Z,86.41
2023-11-18T18:17:43.980Z,86.55
2023-11-18T18:20:13.614Z,86.44
2023-11-18T18:22:43.886Z,86.47
2023-11-18T18:25:13.536Z,86.50
2023-11-18T18:27:42.439Z,86.68
2023-11-18T18:30:14.052Z,86.57
2023-11-18T18:32:42.186Z,86.51
2023-11-18T18:35:12.035Z,86.65
2023-11-18T18:37:40.228Z,86.49
2023-11-18T18:40:08.471Z,86.46
2023-11-18T18:42:36.553Z,86.46
2023-11-18T18:45:04.701Z,86.40
2023-11-18T18:47:32.512Z,86.29
2023-11-18T18:50:00.510Z,86.44
2023-11-18T18:52:28.582Z,86.28
2023-11-18T18:54:56.346Z,86.39
2023-11-18T18:57:25.595Z,86.42
2023-11-18T18:59:54.004Z,86.32
2023-11-18T19:02:21.913Z,86.38
2023-11-18T19:04:50.345Z,86.27
2023-11-18T19:07:19.847Z,86.21
2023-11-18T19:09:47.990Z,86.04
2023-11-18T19:12:16.093Z,86.10
2023-11-18T19:14:43.989Z,85.99
2023-11-18T19:17:11.741Z,85.98
2023-11-18T19:19:39.413Z,86.07
2023-11-18T19:22:07.564Z,85.92
2023-11-18T19:24:35.558Z,85.85
2023-11-18T19:27:03.351Z,85.82
2023-11-18T19:29:31.274Z,85.83
2023-11-18T19:31:59.415Z,85.83
2023-11-18T19:34:27.303Z,85.83
2023-11-18T19:36:55.153Z,85.87
2023-11-18T19:39:22.803Z,85.88
2023-11-18T19:41:51.226Z,85.89
2023-11-18T19:44:19.056Z,85.79
2023-11-18T19:46:51.245Z,85.76
2023-11-18T19:49:19.576Z,85.86
2023-11-18T19:51:47.511Z,86.05
2023-11-18T19:54:15.249Z,85.97
2023-11-18T19:56:44.019Z,86.04
2023-11-18T19:59:11.848Z,85.99
2023-11-18T20:01:39.710Z,85.89
2023-11-18T20:04:07.935Z,85.80
2023-11-18T20:06:35.889Z,85.73
2023-11-18T20:09:04.151Z,85.69
2023-11-18T20:11:32.393Z,85.74
2023-11-18T20:14:01.162Z,85.66
2023-11-18T20:16:29.845Z,85.71
2023-11-18T20:18:57.671Z,85.69
2023-11-18T20:21:25.883Z,85.72
2023-11-18T20:23:53.696Z,85.88
2023-11-18T20:26:22.651Z,85.81
2023-11-18T20:28:50.507Z,85.84
2023-11-18T20:31:18.298Z,85.79
2023-11-18T20:33:46.685Z,85.72
2023-11-18T20:36:14.773Z,85.77
2023-11-18T20:38:44.233Z,85.70
2023-11-18T20:41:15.493Z,85.83
2023-11-18T20:43:48.327Z,85.57
2023-11-18T20:46:17.104Z,85.57
2023-11-18T20:48:45.355Z,85.65
2023-11-18T20:51:15.542Z,85.76
2023-11-18T20:53:43.350Z,85.84
2023-11-18T20:56:11.168Z,85.73
2023-11-18T20:58:41.259Z,85.77
2023-11-18T21:01:12.509Z,85.76
2023-11-18T21:03:40.463Z,85.81
2023-11-18T21:06:08.890Z,85.82
2023-11-18T21:08:36.874Z,85.74
2023-11-18T21:11:04.947Z,85.64
2023-11-18T21:13:35.874Z,85.46
2023-11-18T21:16:03.801Z,85.18
2023-11-18T21:18:31.509Z,85.37
2023-11-18T21:20:59.392Z,85.31
2023-11-18T21:23:27.367Z,85.33
2023-11-18T21:25:55.142Z,85.25
2023-11-18T21:28:23.008Z,85.04
2023-11-18T21:30:50.984Z,85.25
2023-11-18T21:33:18.881Z,85.47
2023-11-18T21:35:46.818Z,85.49
2023-11-18T21:38:14.871Z,85.49
2023-11-18T21:40:42.560Z,85.53
2023-11-18T21:43:10.482Z,85.58
2023-11-18T21:45:38.852Z,85.62
2023-11-18T21:48:07.805Z,85.60
2023-11-18T21:50:36.102Z,85.47
2023-11-18T21:53:04.166Z,85.67
2023-11-18T21:55:31.832Z,85.69
2023-11-18T21:57:59.447Z,85.58
2023-11-18T22:00:27.471Z,85.62
2023-11-18T22:02:55.375Z,85.64
2023-11-18T22:05:24.404Z,85.49
2023-11-18T22:07:52.380Z,85.26
2023-11-18T22:10:22.458Z,85.14
2023-11-18T22:12:52.782Z,85.06
2023-11-18T22:15:23.441Z,85.11
2023-11-18T22:17:53.130Z,85.16
2023-11-18T22:20:25.858Z,85.01
2023-11-18T22:22:53.880Z,85.11
2023-11-18T22:25:21.774Z,85.39
2023-11-18T22:27:49.514Z,85.26
2023-11-18T22:30:17.807Z,85.12
2023-11-18T22:32:45.954Z,85.18
2023-11-18T22:35:13.732Z,85.14
2023-11-18T22:37:41.458Z,84.96
2023-11-18T22:40:17.315Z,85.07
2023-11-18T22:42:48.413Z,85.07
2023-11-18T22:45:21.001Z,85.04
2023-11-18T22:47:51.734Z,85.32
2023-11-18T22:50:22.816Z,85.24
2023-11-18T22:52:51.467Z,85.23
2023-11-18T22:55:23.252Z,85.34
2023-11-18T22:57:51.343Z,85.48
2023-11-18T23:00:54.537Z,85.57
2023-11-18T23:03:23.155Z,85.53
2023-11-18T23:05:54.992Z,85.54
2023-11-18T23:08:23.477Z,85.49
2023-11-18T23:10:52.503Z,85.61
2023-11-18T23:13:21.081Z,85.68
2023-11-18T23:15:49.283Z,85.74
2023-11-18T23:18:20.220Z,85.83
2023-11-18T23:20:48.306Z,85.79
2023-11-18T23:23:16.152Z,85.76
2023-11-18T23:25:43.838Z,85.97
2023-11-18T23:28:11.786Z,85.97
2023-11-18T23:30:39.984Z,85.84
2023-11-18T23:33:09.189Z,85.81
2023-11-18T23:35:38.767Z,85.88
2023-11-18T23:38:06.892Z,85.81
2023-11-18T23:40:34.780Z,85.90
2023-11-18T23:43:02.721Z,85.80
2023-11-18T23:45:32.280Z,85.73
2023-11-18T23:48:00.346Z,85.80
2023-11-18T23:50:32.465Z,85.74
2023-11-18T23:53:00.766Z,85.76
2023-11-18T23:55:28.508Z,85.81
2023-11-18T23:57:56.341Z,85.67
